createdAt,value
2022-12-13T00:02:00.759Z,96989.53
2022-12-13T00:04:29.312Z,96999.94
2022-12-13T00:06:57.841Z,97000.94
2022-12-13T00:09:26.216Z,97000.34
2022-12-13T00:11:55.147Z,96999.50
2022-12-13T00:14:23.580Z,97009.50
2022-12-13T00:16:51.967Z,97015.94
2022-12-13T00:19:21.786Z,97021.94
2022-12-13T00:21:53.006Z,97021.63
2022-12-13T00:24:21.426Z,97023.03
2022-12-13T00:26:50.437Z,97033.34
2022-12-13T00:29:18.957Z,97034.03
2022-12-13T00:32:02.650Z,97037.44
2022-12-13T00:34:31.208Z,97036.31
2022-12-13T00:36:59.708Z,97027.41
2022-12-13T00:39:28.636Z,97025.75
2022-12-13T00:41:57.762Z,97041.84
2022-12-13T00:44:26.243Z,97036.44
2022-12-13T00:46:55.104Z,97044.34
2022-12-13T00:49:23.791Z,97038.16
2022-12-13T00:51:52.209Z,97046.28
2022-12-13T00:54:21.110Z,97039.50
2022-12-13T00:56:52.301Z,97036.66
2022-12-13T00:59:21.074Z,97028.88
2022-12-13T01:01:51.086Z,97042.75
2022-12-13T01:04:20.140Z,97045.22
2022-12-13T01:06:50.197Z,97044.78
2022-12-13T01:09:20.795Z,97048.81
2022-12-13T01:11:49.402Z,97042.81
2022-12-13T01:14:18.566Z,97041.44
2022-12-13T01:16:47.070Z,97045.34
2022-12-13T01:19:17.162Z,97042.63
2022-12-13T01:21:45.454Z,97032.81
2022-12-13T01:24:14.533Z,97037.41
2022-12-13T01:26:42.901Z,97034.28
2022-12-13T01:29:11.745Z,97037.16
2022-12-13T01:31:42.114Z,97030.53
2022-12-13T01:34:11.592Z,97033.00
2022-12-13T01:36:41.126Z,97022.72
2022-12-13T01:39:14.550Z,97035.72
2022-12-13T01:41:47.591Z,97021.28
2022-12-13T01:44:53.252Z,97020.22
2022-12-13T01:47:46.811Z,97023.03
2022-12-13T01:50:17.954Z,97038.59
2022-12-13T01:52:46.455Z,97048.75
2022-12-13T01:55:14.816Z,97050.09
2022-12-13T01:57:45.697Z,97051.03
2022-12-13T02:00:16.592Z,97052.69
2022-12-13T02:02:45.374Z,97052.63
2022-12-13T02:05:22.274Z,97044.88
2022-12-13T02:07:50.753Z,97054.75
2022-12-13T02:10:19.470Z,97048.34
2022-12-13T02:12:47.900Z,97060.19
2022-12-13T02:15:18.411Z,97058.38
2022-12-13T02:18:08.360Z,97043.78
2022-12-13T02:20:49.099Z,97045.38
2022-12-13T02:23:30.752Z,97054.81
2022-12-13T02:26:11.313Z,97052.63
2022-12-13T02:28:49.357Z,97069.81
2022-12-13T02:31:42.097Z,97065.25
2022-12-13T02:34:18.411Z,97059.66
2022-12-13T02:37:05.909Z,97065.19
2022-12-13T02:39:52.095Z,97070.94
2022-12-13T02:42:48.230Z,97067.47
2022-12-13T02:45:24.439Z,97078.78
2022-12-13T02:47:55.296Z,97081.53
2022-12-13T02:50:23.733Z,97075.63
2022-12-13T02:52:52.144Z,97074.81
2022-12-13T02:55:25.164Z,97081.78
2022-12-13T02:57:55.499Z,97077.84
2022-12-13T03:00:43.359Z,97085.41
2022-12-13T03:03:26.708Z,97085.09
2022-12-13T03:06:36.428Z,97073.41
2022-12-13T03:09:26.537Z,97067.22
2022-12-13T03:12:31.929Z,97076.38
2022-12-13T03:15:20.555Z,97080.00
2022-12-13T03:18:04.143Z,97082.38
2022-12-13T03:20:32.531Z,97082.34
2022-12-13T03:23:01.579Z,97091.00
2022-12-13T03:25:32.793Z,97088.81
2022-12-13T03:28:02.431Z,97096.31
2022-12-13T03:30:34.242Z,97084.88
2022-12-13T03:33:02.813Z,97077.09
2022-12-13T03:35:34.160Z,97081.84
2022-12-13T03:38:03.437Z,97081.13
2022-12-13T03:40:31.855Z,97078.31
2022-12-13T03:43:00.544Z,97078.38
2022-12-13T03:45:28.994Z,97078.06
2022-12-13T03:47:57.357Z,97085.97
2022-12-13T03:50:27.507Z,97085.66
2022-12-13T03:53:00.237Z,97080.44
2022-12-13T03:55:29.463Z,97075.91
2022-12-13T03:57:59.156Z,97083.03
2022-12-13T04:00:30.469Z,97082.94
2022-12-13T04:02:58.923Z,97083.09
2022-12-13T04:05:27.407Z,97074.53
2022-12-13T04:08:00.907Z,97086.44
2022-12-13T04:10:30.097Z,97085.81
2022-12-13T04:13:17.044Z,97087.38
2022-12-13T04:15:49.255Z,97097.66
2022-12-13T04:18:18.871Z,97103.00
2022-12-13T04:20:47.665Z,97104.50
2022-12-13T04:23:16.253Z,97108.06
2022-12-13T04:25:45.830Z,97120.03
2022-12-13T04:28:22.008Z,97117.28
2022-12-13T04:30:52.969Z,97127.78
2022-12-13T04:33:22.878Z,97134.44
2022-12-13T04:35:51.648Z,97136.50
2022-12-13T04:38:20.774Z,97139.22
2022-12-13T04:40:50.752Z,97139.22
2022-12-13T04:43:19.107Z,97135.53
2022-12-13T04:45:47.644Z,97132.25
2022-12-13T04:48:30.505Z,97132.38
2022-12-13T04:51:01.369Z,97139.13
2022-12-13T04:53:30.987Z,97136.84
2022-12-13T04:55:59.948Z,97135.69
2022-12-13T04:58:29.053Z,97141.91
2022-12-13T05:00:57.998Z,97149.03
2022-12-13T05:03:28.283Z,97160.81
2022-12-13T05:05:57.246Z,97159.31
2022-12-13T05:08:26.141Z,97156.16
2022-12-13T05:10:54.959Z,97156.03
2022-12-13T05:13:23.320Z,97166.38
2022-12-13T05:15:58.546Z,97163.66
2022-12-13T05:18:27.020Z,97167.28
2022-12-13T05:20:55.533Z,97162.75
2022-12-13T05:23:25.447Z,97169.19
2022-12-13T05:25:53.890Z,97164.78
2022-12-13T05:28:27.821Z,97170.06
2022-12-13T05:30:58.776Z,97171.88
2022-12-13T05:33:28.779Z,97169.78
2022-12-13T05:36:00.631Z,97168.72
2022-12-13T05:38:31.425Z,97159.09
2022-12-13T05:40:59.960Z,97163.91
2022-12-13T05:43:41.944Z,97169.38
2022-12-13T05:46:15.239Z,97163.81
2022-12-13T05:48:43.769Z,97176.47
2022-12-13T05:51:12.498Z,97176.69
2022-12-13T05:53:45.245Z,97180.22
2022-12-13T05:56:22.475Z,97197.38
2022-12-13T05:58:53.540Z,97202.19
2022-12-13T06:01:23.937Z,97204.69
2022-12-13T06:03:52.566Z,97211.50
2022-12-13T06:06:21.620Z,97210.53
2022-12-13T06:08:51.259Z,97203.84
2022-12-13T06:11:21.594Z,97208.50
2022-12-13T06:14:01.379Z,97205.66
2022-12-13T06:16:30.110Z,97201.63
2022-12-13T06:19:04.282Z,97204.78
2022-12-13T06:21:45.518Z,97205.25
2022-12-13T06:24:16.241Z,97203.69
2022-12-13T06:26:45.187Z,97214.84
2022-12-13T06:29:22.516Z,97209.06
2022-12-13T06:32:00.865Z,97215.41
2022-12-13T06:34:35.839Z,97216.56
2022-12-13T06:37:07.386Z,97217.44
2022-12-13T06:39:35.885Z,97218.75
2022-12-13T06:42:06.710Z,97207.81
2022-12-13T06:44:35.669Z,97212.16
2022-12-13T06:47:11.339Z,97221.50
2022-12-13T06:49:43.966Z,97230.69
2022-12-13T06:52:13.758Z,97218.00
2022-12-13T06:54:42.736Z,97224.34
2022-12-13T06:57:12.450Z,97224.34
2022-12-13T06:59:41.473Z,97230.78
2022-12-13T07:02:15.494Z,97232.00
2022-12-13T07:04:54.993Z,97236.91
2022-12-13T07:07:23.595Z,97239.44
2022-12-13T07:09:52.943Z,97238.72
2022-12-13T07:12:22.127Z,97239.28
2022-12-13T07:14:50.711Z,97241.00
2022-12-13T07:17:32.816Z,97241.63
2022-12-13T07:20:08.655Z,97243.78
2022-12-13T07:22:46.807Z,97251.84
2022-12-13T07:25:27.717Z,97242.28
2022-12-13T07:28:02.480Z,97239.31
2022-12-13T07:30:41.504Z,97235.47
2022-12-13T07:33:10.379Z,97245.19
2022-12-13T07:35:38.869Z,97244.91
2022-12-13T07:38:07.834Z,97238.75
2022-12-13T07:40:37.179Z,97253.16
2022-12-13T07:43:06.042Z,97250.25
2022-12-13T07:45:34.628Z,97263.50
2022-12-13T07:48:06.861Z,97257.06
2022-12-13T07:50:36.820Z,97258.63
2022-12-13T07:53:09.070Z,97254.25
2022-12-13T07:55:38.014Z,97267.09
2022-12-13T07:58:13.996Z,97258.47
2022-12-13T08:00:46.094Z,97259.19
2022-12-13T08:03:25.317Z,97266.66
2022-12-13T08:06:04.467Z,97269.22
2022-12-13T08:08:33.376Z,97274.13
2022-12-13T08:11:08.860Z,97277.28
2022-12-13T08:13:37.272Z,97285.94
2022-12-13T08:16:27.875Z,97276.31
2022-12-13T08:19:01.781Z,97270.59
2022-12-13T08:21:56.865Z,97276.75
2022-12-13T08:24:27.849Z,97280.84
2022-12-13T08:27:01.708Z,97268.16
2022-12-13T08:29:34.501Z,97278.78
2022-12-13T08:32:05.415Z,97270.66
2022-12-13T08:34:34.546Z,97279.81
2022-12-13T08:37:04.133Z,97270.09
2022-12-13T08:39:35.550Z,97259.91
2022-12-13T08:42:15.903Z,97267.53
2022-12-13T08:44:47.154Z,97273.88
2022-12-13T08:47:22.964Z,97267.19
2022-12-13T08:50:02.251Z,97258.59
2022-12-13T08:52:40.070Z,97253.22
2022-12-13T08:55:10.912Z,97240.59
2022-12-13T08:57:40.966Z,97229.72
2022-12-13T09:00:14.381Z,97227.31
2022-12-13T09:02:42.994Z,97229.16
2022-12-13T09:05:11.708Z,97232.03
2022-12-13T09:07:41.477Z,97227.59
2022-12-13T09:10:26.930Z,97221.22
2022-12-13T09:13:01.537Z,97220.53
2022-12-13T09:15:33.797Z,97213.03
2022-12-13T09:18:04.523Z,97219.00
2022-12-13T09:20:41.170Z,97203.66
2022-12-13T09:23:13.642Z,97204.13
2022-12-13T09:26:05.447Z,97210.78
2022-12-13T09:28:35.888Z,97207.31
2022-12-13T09:31:14.071Z,97205.63
2022-12-13T09:33:42.829Z,97211.53
2022-12-13T09:36:12.932Z,97209.75
2022-12-13T09:38:41.379Z,97209.19
2022-12-13T09:41:19.448Z,97198.75
2022-12-13T09:44:01.131Z,97199.00
2022-12-13T09:46:34.276Z,97201.22
2022-12-13T09:49:35.180Z,97199.00
2022-12-13T09:52:11.557Z,97197.47
2022-12-13T09:54:48.101Z,97183.25
2022-12-13T09:57:32.401Z,97188.19
2022-12-13T10:00:04.952Z,97191.31
2022-12-13T10:02:55.432Z,97184.22
2022-12-13T10:05:35.750Z,97180.28
2022-12-13T10:08:09.482Z,97181.81
2022-12-13T10:10:38.529Z,97168.94
2022-12-13T10:13:15.423Z,97170.13
2022-12-13T10:15:47.055Z,97174.03
2022-12-13T10:18:17.683Z,97176.34
2022-12-13T10:20:46.151Z,97178.00
2022-12-13T10:23:38.488Z,97165.03
2022-12-13T10:26:04.145Z,97164.59
2022-12-13T10:28:33.427Z,97162.38
2022-12-13T10:31:01.938Z,97158.44
2022-12-13T10:33:32.654Z,97152.13
2022-12-13T10:36:04.129Z,97142.72
2022-12-13T10:38:35.892Z,97141.75
2022-12-13T10:41:04.605Z,97135.56
2022-12-13T10:43:33.822Z,97123.31
2022-12-13T10:46:04.054Z,97135.22
2022-12-13T10:48:49.482Z,97137.31
2022-12-13T10:51:20.359Z,97130.97
2022-12-13T10:53:50.497Z,97121.31
2022-12-13T10:56:23.413Z,97124.94
2022-12-13T10:59:13.349Z,97121.94
2022-12-13T11:01:43.697Z,97109.66
2022-12-13T11:04:27.962Z,97108.81
2022-12-13T11:06:57.885Z,97107.31
2022-12-13T11:09:30.424Z,97109.47
2022-12-13T11:12:13.947Z,97110.94
2022-12-13T11:14:55.767Z,97106.88
2022-12-13T11:17:25.849Z,97096.28
2022-12-13T11:19:56.359Z,97094.31
2022-12-13T11:22:29.168Z,97103.94
2022-12-13T11:25:24.423Z,97099.25
2022-12-13T11:28:29.078Z,97098.56
2022-12-13T11:31:06.387Z,97092.13
2022-12-13T11:33:47.541Z,97088.88
2022-12-13T11:36:28.731Z,97087.00
2022-12-13T11:39:17.831Z,97084.34
2022-12-13T11:41:55.601Z,97076.41
2022-12-13T11:44:26.641Z,97078.69
2022-12-13T11:46:56.813Z,97080.28
2022-12-13T11:49:42.117Z,97069.53
2022-12-13T11:52:16.047Z,97061.38
2022-12-13T11:54:49.329Z,97074.72
2022-12-13T11:57:30.473Z,97075.41
2022-12-13T12:00:05.147Z,97069.28
2022-12-13T12:02:49.288Z,97072.38
2022-12-13T12:05:38.538Z,97067.28
2022-12-13T12:08:33.496Z,97060.91
2022-12-13T12:11:22.633Z,97063.84
2022-12-13T12:13:58.095Z,97051.97
2022-12-13T12:16:34.668Z,97053.06
2022-12-13T12:19:03.115Z,97064.69
2022-12-13T12:22:12.223Z,97051.06
2022-12-13T12:24:40.877Z,97052.44
2022-12-13T12:27:28.926Z,97052.94
2022-12-13T12:30:07.826Z,97058.59
2022-12-13T12:32:46.422Z,97061.75
2022-12-13T12:35:38.148Z,97061.31
2022-12-13T12:38:33.154Z,97064.78
2022-12-13T12:41:16.465Z,97063.72
2022-12-13T12:43:46.406Z,97072.50
2022-12-13T12:46:20.806Z,97074.41
2022-12-13T12:49:01.839Z,97073.34
2022-12-13T12:51:37.718Z,97073.44
2022-12-13T12:54:13.793Z,97069.47
2022-12-13T12:57:15.953Z,97071.44
2022-12-13T13:00:01.668Z,97065.19
2022-12-13T13:03:15.792Z,97055.00
2022-12-13T13:05:48.518Z,97065.13
2022-12-13T13:08:28.602Z,97055.56
2022-12-13T13:11:02.061Z,97063.63
2022-12-13T13:13:47.018Z,97075.44
2022-12-13T13:16:27.669Z,97072.28
2022-12-13T13:18:56.874Z,97065.22
2022-12-13T13:21:52.482Z,97076.94
2022-12-13T13:24:27.770Z,97081.50
2022-12-13T13:26:56.860Z,97081.66
2022-12-13T13:29:27.528Z,97076.41
2022-12-13T13:32:27.936Z,97076.84
2022-12-13T13:35:34.668Z,97085.19
2022-12-13T13:38:17.072Z,97108.63
2022-12-13T13:40:45.536Z,97113.72
2022-12-13T13:43:19.864Z,97116.69
2022-12-13T13:46:10.947Z,97120.44
2022-12-13T13:48:51.937Z,97132.59
2022-12-13T13:52:08.679Z,97121.06
2022-12-13T13:54:44.925Z,97123.84
2022-12-13T13:58:07.724Z,97130.13
2022-12-13T14:00:26.350Z,97129.84
2022-12-13T14:03:34.957Z,97116.53
2022-12-13T14:06:23.045Z,97114.16
2022-12-13T14:09:19.436Z,97126.25
2022-12-13T14:12:09.525Z,97120.53
2022-12-13T14:15:16.386Z,97114.03
2022-12-13T14:17:54.177Z,97119.94
2022-12-13T14:20:44.596Z,97113.25
2022-12-13T14:23:29.011Z,97112.47
2022-12-13T14:26:15.794Z,97112.03
2022-12-13T14:28:57.912Z,97093.94
2022-12-13T14:31:43.110Z,97090.09
2022-12-13T14:34:20.137Z,97096.66
2022-12-13T14:36:58.525Z,97103.47
2022-12-13T14:39:29.732Z,97104.09
2022-12-13T14:41:59.297Z,97110.63
2022-12-13T14:44:31.968Z,97121.00
2022-12-13T14:47:02.594Z,97133.59
2022-12-13T14:49:33.399Z,97125.03
2022-12-13T14:52:29.253Z,97123.44
2022-12-13T14:55:00.975Z,97117.69
2022-12-13T14:57:31.682Z,97107.84
2022-12-13T15:00:02.003Z,97112.22
2022-12-13T15:02:33.784Z,97096.16
2022-12-13T15:05:05.727Z,97099.38
2022-12-13T15:07:41.737Z,97088.09
2022-12-13T15:10:19.275Z,97090.63
2022-12-13T15:12:47.640Z,97099.09
2022-12-13T15:15:38.547Z,97097.94
2022-12-13T15:18:08.105Z,97108.16
2022-12-13T15:20:42.396Z,97127.16
2022-12-13T15:23:26.656Z,97133.28
2022-12-13T15:26:28.947Z,97140.09
2022-12-13T15:28:59.939Z,97135.63
2022-12-13T15:31:31.501Z,97138.69
2022-12-13T15:34:28.746Z,97136.06
2022-12-13T15:36:59.581Z,97142.81
2022-12-13T15:39:31.406Z,97148.44
2022-12-13T15:41:59.885Z,97156.44
2022-12-13T15:44:41.622Z,97158.13
2022-12-13T15:47:28.136Z,97160.03
2022-12-13T15:50:02.714Z,97158.34
2022-12-13T15:52:36.754Z,97151.50
2022-12-13T15:55:11.105Z,97144.13
2022-12-13T15:57:54.151Z,97147.72
2022-12-13T16:00:33.434Z,97159.16
2022-12-13T16:03:16.679Z,97148.38
2022-12-13T16:05:50.406Z,97151.53
2022-12-13T16:08:29.070Z,97151.28
2022-12-13T16:10:57.752Z,97158.41
2022-12-13T16:13:28.797Z,97159.53
2022-12-13T16:15:59.918Z,97162.03
2022-12-13T16:18:53.000Z,97170.59
2022-12-13T16:21:22.048Z,97166.81
2022-12-13T16:23:50.980Z,97169.03
2022-12-13T16:26:29.016Z,97157.63
2022-12-13T16:29:00.615Z,97167.72
2022-12-13T16:31:36.247Z,97168.72
2022-12-13T16:34:05.513Z,97162.19
2022-12-13T16:36:33.951Z,97160.91
2022-12-13T16:39:02.693Z,97156.34
2022-12-13T16:41:31.717Z,97163.66
2022-12-13T16:44:02.308Z,97150.97
2022-12-13T16:47:13.374Z,97145.44
2022-12-13T16:49:25.745Z,97146.34
2022-12-13T16:51:54.568Z,97136.28
2022-12-13T16:54:24.402Z,97145.31
2022-12-13T16:56:54.373Z,97151.44
2022-12-13T16:59:25.029Z,97151.28
2022-12-13T17:01:53.713Z,97157.00
2022-12-13T17:04:24.052Z,97153.03
2022-12-13T17:06:54.887Z,97150.50
2022-12-13T17:09:25.422Z,97164.63
2022-12-13T17:11:54.198Z,97166.78
2022-12-13T17:14:22.939Z,97172.34
2022-12-13T17:16:52.555Z,97174.34
2022-12-13T17:19:21.118Z,97175.81
2022-12-13T17:21:49.921Z,97181.94
2022-12-13T17:24:20.335Z,97183.31
2022-12-13T17:26:54.454Z,97179.44
2022-12-13T17:29:26.106Z,97174.06
2022-12-13T17:31:55.387Z,97187.34
2022-12-13T17:34:24.769Z,97174.19
2022-12-13T17:36:54.571Z,97177.91
2022-12-13T17:39:27.326Z,97170.97
2022-12-13T17:41:57.561Z,97174.31
2022-12-13T17:44:27.328Z,97166.34
2022-12-13T17:46:58.239Z,97160.66
2022-12-13T17:49:27.799Z,97163.19
2022-12-13T17:51:57.202Z,97164.31
2022-12-13T17:54:26.601Z,97160.91
2022-12-13T17:56:55.287Z,97148.53
2022-12-13T17:59:24.221Z,97150.66
2022-12-13T18:01:52.846Z,97157.25
2022-12-13T18:04:21.857Z,97156.97
2022-12-13T18:06:51.609Z,97166.41
2022-12-13T18:09:21.767Z,97156.28
2022-12-13T18:11:51.574Z,97163.91
2022-12-13T18:14:24.098Z,97162.63
2022-12-13T18:16:56.611Z,97165.34
2022-12-13T18:19:35.052Z,97162.31
2022-12-13T18:22:07.082Z,97172.75
2022-12-13T18:24:41.570Z,97162.38
2022-12-13T18:27:13.218Z,97174.16
2022-12-13T18:29:55.027Z,97175.38
2022-12-13T18:32:25.790Z,97173.56
2022-12-13T18:34:56.919Z,97177.06
2022-12-13T18:37:29.240Z,97181.06
2022-12-13T18:39:59.990Z,97185.28
2022-12-13T18:42:33.468Z,97184.25
2022-12-13T18:45:07.605Z,97181.03
2022-12-13T18:47:42.096Z,97187.97
2022-12-13T18:50:15.872Z,97184.03
2022-12-13T18:52:47.495Z,97176.28
2022-12-13T18:55:16.013Z,97181.44
2022-12-13T18:57:44.520Z,97185.09
2022-12-13T19:00:14.023Z,97189.53
2022-12-13T19:02:42.734Z,97182.81
2022-12-13T19:05:11.408Z,97177.59
2022-12-13T19:07:43.672Z,97176.59
2022-12-13T19:10:16.317Z,97176.81
2022-12-13T19:12:49.641Z,97196.41
2022-12-13T19:15:22.815Z,97196.84
2022-12-13T19:17:54.269Z,97192.78
2022-12-13T19:20:27.277Z,97198.13
2022-12-13T19:22:57.199Z,97192.59
2022-12-13T19:25:26.191Z,97193.22
2022-12-13T19:27:57.293Z,97190.19
2022-12-13T19:30:26.548Z,97186.16
2022-12-13T19:32:56.431Z,97181.66
2022-12-13T19:35:25.680Z,97179.75
2022-12-13T19:37:54.207Z,97178.38
2022-12-13T19:40:23.760Z,97183.47
2022-12-13T19:42:55.448Z,97178.81
2022-12-13T19:45:25.938Z,97182.78
2022-12-13T19:47:54.606Z,97186.56
2022-12-13T19:50:23.617Z,97187.56
2022-12-13T19:52:52.650Z,97176.84
2022-12-13T19:55:21.225Z,97173.72
2022-12-13T19:57:50.518Z,97166.59
2022-12-13T20:00:19.248Z,97174.50
2022-12-13T20:02:47.820Z,97162.94
2022-12-13T20:05:16.701Z,97170.75
2022-12-13T20:07:45.322Z,97179.72
2022-12-13T20:10:14.406Z,97180.88
2022-12-13T20:12:42.934Z,97184.25
2022-12-13T20:15:11.901Z,97185.38
2022-12-13T20:17:40.531Z,97178.63
2022-12-13T20:20:09.529Z,97184.94
2022-12-13T20:22:38.770Z,97187.16
2022-12-13T20:25:07.936Z,97192.78
2022-12-13T20:27:37.033Z,97191.66
2022-12-13T20:30:06.787Z,97186.06
2022-12-13T20:32:35.628Z,97188.91
2022-12-13T20:35:04.493Z,97187.69
2022-12-13T20:37:34.568Z,97191.31
2022-12-13T20:40:04.091Z,97188.34
2022-12-13T20:42:33.855Z,97182.69
2022-12-13T20:45:03.272Z,97167.78
2022-12-13T20:47:36.377Z,97169.69
2022-12-13T20:50:08.136Z,97175.44
2022-12-13T20:52:36.896Z,97165.19
2022-12-13T20:55:06.814Z,97169.28
2022-12-13T20:57:35.241Z,97169.19
2022-12-13T21:00:04.887Z,97162.06
2022-12-13T21:02:33.331Z,97155.28
2022-12-13T21:05:01.726Z,97163.97
2022-12-13T21:07:49.177Z,97166.19
2022-12-13T21:10:17.692Z,97159.72
2022-12-13T21:12:46.348Z,97154.47
2022-12-13T21:15:14.954Z,97158.44
2022-12-13T21:17:43.957Z,97170.38
2022-12-13T21:20:12.506Z,97166.00
2022-12-13T21:22:41.066Z,97173.38
2022-12-13T21:25:09.613Z,97175.63
2022-12-13T21:27:37.990Z,97169.81
2022-12-13T21:30:08.075Z,97178.97
2022-12-13T21:32:36.549Z,97173.88
2022-12-13T21:35:06.291Z,97169.72
2022-12-13T21:37:34.710Z,97159.78
2022-12-13T21:40:03.198Z,97155.28
2022-12-13T21:42:31.642Z,97167.19
2022-12-13T21:45:02.564Z,97166.03
2022-12-13T21:47:31.004Z,97166.31
2022-12-13T21:49:59.912Z,97169.47
2022-12-13T21:52:29.226Z,97161.72
2022-12-13T21:55:15.177Z,97172.91
2022-12-13T21:58:07.898Z,97177.34
2022-12-13T22:00:38.424Z,97182.56
2022-12-13T22:03:06.921Z,97178.06
2022-12-13T22:05:35.357Z,97181.22
2022-12-13T22:08:04.405Z,97164.28
2022-12-13T22:10:32.838Z,97175.69
2022-12-13T22:13:01.264Z,97185.91
2022-12-13T22:15:29.645Z,97189.41
2022-12-13T22:17:59.290Z,97186.94
2022-12-13T22:20:27.637Z,97174.50
2022-12-13T22:22:57.095Z,97183.66
2022-12-13T22:25:26.314Z,97180.31
2022-12-13T22:27:54.663Z,97178.50
2022-12-13T22:30:23.251Z,97166.78
2022-12-13T22:32:52.667Z,97174.50
2022-12-13T22:35:20.940Z,97183.38
2022-12-13T22:37:50.329Z,97175.47
2022-12-13T22:40:20.389Z,97171.69
2022-12-13T22:42:49.106Z,97173.38
2022-12-13T22:45:17.669Z,97172.06
2022-12-13T22:47:46.560Z,97172.53
2022-12-13T22:50:15.024Z,97185.41
2022-12-13T22:52:43.517Z,97173.66
2022-12-13T22:55:12.314Z,97167.31
2022-12-13T22:57:40.688Z,97174.56
2022-12-13T23:00:10.509Z,97171.72
2022-12-13T23:02:40.175Z,97174.84
2022-12-13T23:05:08.807Z,97173.41
2022-12-13T23:07:37.567Z,97176.94
2022-12-13T23:10:27.561Z,97176.91
2022-12-13T23:13:04.798Z,97188.91
2022-12-13T23:15:37.731Z,97182.75
2022-12-13T23:18:06.399Z,97176.50
2022-12-13T23:20:35.526Z,97180.81
2022-12-13T23:23:04.078Z,97187.16
2022-12-13T23:25:32.451Z,97189.25
2022-12-13T23:28:01.708Z,97184.44
2022-12-13T23:30:30.830Z,97179.50
2022-12-13T23:32:59.300Z,97174.63
2022-12-13T23:35:27.697Z,97175.16
2022-12-13T23:37:56.100Z,97179.94
2022-12-13T23:40:24.568Z,97178.91
2022-12-13T23:42:53.044Z,97178.97
2022-12-13T23:45:21.942Z,97181.91
2022-12-13T23:47:50.411Z,97183.47
2022-12-13T23:50:18.889Z,97185.69
2022-12-13T23:52:47.915Z,97177.72
2022-12-13T23:55:16.574Z,97172.72
2022-12-13T23:57:45.118Z,97171.56
